Time;durP1;ratioP1;P1;durP2;ratioP2;P2;SDS_P1;SDS_P2;PMS_P1;PMS_P2;Temp;Humidity;BMP_temperature;BMP_pressure;BME280_temperature;BME280_humidity;BME280_pressure;Samples;Min_cycle;Max_cycle;Signal;HPM_P1;HPM_P2
2024/02/02 00:01:55;;;;;;;19.53;14.30;;;;;;;;;;4787228;29;20209;-87
2024/02/02 00:04:59;;;;;;;23.77;15.10;;;;;;;;;;4786889;29;20197;-88
2024/02/02 00:08:04;;;;;;;25.27;15.60;;;;;;;;;;4806830;29;20229;-87
2024/02/02 00:11:08;;;;;;;21.43;14.53;;;;;;;;;;4787039;29;20197;-87
2024/02/02 00:14:12;;;;;;;23.10;15.53;;;;;;;;;;4786467;29;20532;-87
2024/02/02 00:17:20;;;;;;;26.27;15.67;;;;;;;;;;4796215;29;20232;-88
2024/02/02 00:20:24;;;;;;;23.63;14.97;;;;;;;;;;4796696;29;20189;-88
2024/02/02 00:23:29;;;;;;;22.40;14.37;;;;;;;;;;4796678;29;20204;-87
2024/02/02 00:26:33;;;;;;;19.83;13.40;;;;;;;;;;4776078;29;20196;-87
2024/02/02 00:29:37;;;;;;;20.93;13.87;;;;;;;;;;4786163;29;20221;-87
2024/02/02 00:32:44;;;;;;;19.80;13.77;;;;;;;;;;4786564;29;20193;-87
2024/02/02 00:35:48;;;;;;;21.83;13.73;;;;;;;;;;4796466;29;20206;-87
2024/02/02 00:38:52;;;;;;;22.43;13.43;;;;;;;;;;4795922;29;20237;-86
2024/02/02 00:41:57;;;;;;;22.33;13.63;;;;;;;;;;4808292;29;20193;-86
2024/02/02 00:45:01;;;;;;;20.07;14.00;;;;;;;;;;4796663;29;20197;-86
2024/02/02 00:48:05;;;;;;;20.27;12.67;;;;;;;;;;4796862;29;20229;-86
2024/02/02 00:51:10;;;;;;;19.80;13.73;;;;;;;;;;4797251;29;20268;-86
2024/02/02 00:54:13;;;;;;;16.90;11.63;;;;;;;;;;4790739;29;20249;-85
2024/02/02 00:57:18;;;;;;;18.33;12.30;;;;;;;;;;4800391;29;20224;-85
2024/02/02 01:00:23;;;;;;;19.83;12.47;;;;;;;;;;4800989;29;20185;-86
2024/02/02 01:03:28;;;;;;;19.77;11.93;;;;;;;;;;4800994;29;20197;-86
2024/02/02 01:06:32;;;;;;;16.47;11.73;;;;;;;;;;4800215;29;20663;-85
2024/02/02 01:09:37;;;;;;;18.67;12.57;;;;;;;;;;4811440;29;20742;-86
2024/02/02 01:12:41;;;;;;;16.30;11.40;;;;;;;;;;4790626;29;20193;-86
2024/02/02 01:15:45;;;;;;;17.40;12.30;;;;;;;;;;4800758;29;20189;-86
2024/02/02 01:18:50;;;;;;;21.80;12.17;;;;;;;;;;4819354;29;20224;-84
2024/02/02 01:21:54;;;;;;;17.50;12.03;;;;;;;;;;4822106;29;20192;-86
2024/02/02 01:24:59;;;;;;;17.87;12.33;;;;;;;;;;4811530;29;20201;-86
2024/02/02 01:28:04;;;;;;;18.30;11.47;;;;;;;;;;4799670;29;20236;-85
2024/02/02 01:31:08;;;;;;;15.57;11.03;;;;;;;;;;4800050;29;20185;-86
2024/02/02 01:34:13;;;;;;;16.60;12.50;;;;;;;;;;4805234;29;20197;-86
2024/02/02 01:37:18;;;;;;;18.20;11.27;;;;;;;;;;4818186;29;20228;-87
2024/02/02 01:40:23;;;;;;;18.00;10.97;;;;;;;;;;4807115;29;20209;-87
2024/02/02 01:43:27;;;;;;;17.10;11.70;;;;;;;;;;4817196;29;20188;-86
2024/02/02 01:46:32;;;;;;;18.03;12.10;;;;;;;;;;4816188;29;20200;-86
2024/02/02 01:49:36;;;;;;;18.90;11.53;;;;;;;;;;4816689;29;20220;-86
2024/02/02 01:52:41;;;;;;;19.37;11.57;;;;;;;;;;4805563;29;20195;-86
2024/02/02 01:55:45;;;;;;;20.73;11.40;;;;;;;;;;4815436;29;20196;-85
2024/02/02 01:58:49;;;;;;;19.53;10.90;;;;;;;;;;4796495;29;20236;-86
2024/02/02 02:01:54;;;;;;;17.97;10.53;;;;;;;;;;4807471;29;20669;-86
2024/02/02 02:04:58;;;;;;;18.27;11.10;;;;;;;;;;4817506;29;20197;-86
2024/02/02 02:08:02;;;;;;;17.00;11.10;;;;;;;;;;4806418;29;20249;-86
2024/02/02 02:11:08;;;;;;;20.20;10.83;;;;;;;;;;4806198;29;20196;-86
2024/02/02 02:14:12;;;;;;;18.37;11.37;;;;;;;;;;4806119;29;20536;-86
2024/02/02 02:17:16;;;;;;;21.17;12.70;;;;;;;;;;4785960;29;20237;-86
2024/02/02 02:20:25;;;;;;;18.93;11.60;;;;;;;;;;4818397;29;20659;-87
2024/02/02 02:23:35;;;;;;;24.10;12.00;;;;;;;;;;4805062;29;20193;-85
2024/02/02 02:26:40;;;;;;;21.83;12.60;;;;;;;;;;4804984;29;20194;-85
2024/02/02 02:29:44;;;;;;;19.57;11.67;;;;;;;;;;4815056;29;20216;-86
2024/02/02 02:32:49;;;;;;;21.07;13.07;;;;;;;;;;4815037;29;20686;-86
2024/02/02 02:35:53;;;;;;;21.63;11.47;;;;;;;;;;4814299;29;20196;-86
2024/02/02 02:38:57;;;;;;;24.50;12.50;;;;;;;;;;4813236;29;20229;-86
2024/02/02 02:42:01;;;;;;;19.13;12.20;;;;;;;;;;4805538;29;20200;-87
2024/02/02 02:45:06;;;;;;;18.63;12.27;;;;;;;;;;4794875;29;20193;-86
2024/02/02 02:48:10;;;;;;;22.07;12.60;;;;;;;;;;4812752;29;20239;-86
2024/02/02 02:51:15;;;;;;;17.40;11.10;;;;;;;;;;4812844;29;20185;-86
2024/02/02 02:54:19;;;;;;;16.27;11.73;;;;;;;;;;4801908;29;20568;-86
2024/02/02 02:57:23;;;;;;;25.20;12.80;;;;;;;;;;4812357;29;20249;-85
2024/02/02 03:00:29;;;;;;;20.40;12.03;;;;;;;;;;4800772;29;20189;-86
2024/02/02 03:03:33;;;;;;;19.50;11.27;;;;;;;;;;4801412;29;20564;-86
2024/02/02 03:06:37;;;;;;;23.07;11.33;;;;;;;;;;4800699;29;20658;-85
2024/02/02 03:09:41;;;;;;;20.40;11.53;;;;;;;;;;4790563;29;20224;-86
2024/02/02 03:12:45;;;;;;;21.70;11.60;;;;;;;;;;4811133;29;20205;-86
2024/02/02 03:15:50;;;;;;;17.67;11.33;;;;;;;;;;4810851;29;20193;-86
2024/02/02 03:18:54;;;;;;;17.00;10.93;;;;;;;;;;4810792;29;20235;-86
2024/02/02 03:21:58;;;;;;;19.27;11.40;;;;;;;;;;4789566;29;20208;-86
2024/02/02 03:25:02;;;;;;;17.40;10.07;;;;;;;;;;4799651;29;20197;-85
2024/02/02 03:28:07;;;;;;;19.43;10.60;;;;;;;;;;4810440;29;20599;-85
2024/02/02 03:31:11;;;;;;;16.63;10.13;;;;;;;;;;4810457;29;20224;-86
2024/02/02 03:34:16;;;;;;;21.87;10.60;;;;;;;;;;4799405;29;20200;-86
2024/02/02 03:37:20;;;;;;;17.23;10.40;;;;;;;;;;4789774;29;20239;-86
2024/02/02 03:40:24;;;;;;;19.90;10.43;;;;;;;;;;4810758;29;20583;-85
2024/02/02 03:43:28;;;;;;;20.23;10.80;;;;;;;;;;4800254;29;20200;-86
2024/02/02 03:46:32;;;;;;;19.43;10.37;;;;;;;;;;4811777;29;20701;-86
2024/02/02 03:49:37;;;;;;;25.93;10.63;;;;;;;;;;4799101;29;20231;-85
2024/02/02 03:52:41;;;;;;;21.40;11.23;;;;;;;;;;4798561;29;20200;-86
2024/02/02 03:55:45;;;;;;;18.83;10.63;;;;;;;;;;4788090;29;20206;-86
2024/02/02 03:58:49;;;;;;;19.43;10.10;;;;;;;;;;4798583;29;20287;-85
2024/02/02 04:01:54;;;;;;;21.53;10.57;;;;;;;;;;4809667;29;20189;-86
2024/02/02 04:04:58;;;;;;;21.47;10.63;;;;;;;;;;4809176;29;20678;-86
2024/02/02 04:08:02;;;;;;;17.87;10.23;;;;;;;;;;4809838;29;20231;-85
2024/02/02 04:11:07;;;;;;;18.17;10.17;;;;;;;;;;4798163;29;20726;-85
2024/02/02 04:14:12;;;;;;;15.83;9.47;;;;;;;;;;4809424;29;20654;-86
2024/02/02 04:17:16;;;;;;;22.63;10.00;;;;;;;;;;4798580;29;20236;-86
2024/02/02 04:20:20;;;;;;;24.87;10.83;;;;;;;;;;4799245;29;20186;-86
2024/02/02 04:23:25;;;;;;;18.67;10.67;;;;;;;;;;4799736;29;20204;-86
2024/02/02 04:26:29;;;;;;;21.87;10.80;;;;;;;;;;4799409;29;20200;-85
2024/02/02 04:29:33;;;;;;;16.47;10.47;;;;;;;;;;4810434;29;20233;-85
2024/02/02 04:32:38;;;;;;;17.07;10.87;;;;;;;;;;4798045;29;20193;-85
2024/02/02 04:35:42;;;;;;;19.90;11.27;;;;;;;;;;4798553;29;20200;-85
2024/02/02 04:38:46;;;;;;;20.07;10.17;;;;;;;;;;4799166;29;20235;-86
2024/02/02 04:41:50;;;;;;;22.97;11.00;;;;;;;;;;4810389;29;20193;-85
2024/02/02 04:44:54;;;;;;;16.83;9.67;;;;;;;;;;4810037;29;20193;-86
2024/02/02 04:47:58;;;;;;;24.17;10.43;;;;;;;;;;4799214;29;20229;-86
2024/02/02 04:51:03;;;;;;;17.80;10.43;;;;;;;;;;4799033;29;20227;-86
2024/02/02 04:54:07;;;;;;;16.30;9.63;;;;;;;;;;4787938;29;20205;-85
2024/02/02 04:57:11;;;;;;;17.53;9.77;;;;;;;;;;4797839;29;20236;-86
2024/02/02 05:00:15;;;;;;;17.10;9.60;;;;;;;;;;4808927;29;20197;-86
2024/02/02 05:03:20;;;;;;;20.80;9.63;;;;;;;;;;4797772;29;20197;-85
2024/02/02 05:06:24;;;;;;;12.07;8.70;;;;;;;;;;4788148;29;20197;-86
2024/02/02 05:09:28;;;;;;;16.77;9.40;;;;;;;;;;4797996;29;20193;-86
2024/02/02 05:12:35;;;;;;;14.63;9.77;;;;;;;;;;4797942;29;20197;-85
2024/02/02 05:15:40;;;;;;;21.63;10.33;;;;;;;;;;4807615;29;20197;-86
2024/02/02 05:18:44;;;;;;;18.40;10.80;;;;;;;;;;4797005;29;20608;-86
2024/02/02 05:21:49;;;;;;;16.00;10.20;;;;;;;;;;4797777;29;20196;-86
2024/02/02 05:25:17;;;;;;;16.17;9.23;;;;;;;;;;4808164;29;20260;-88
2024/02/02 05:28:47;;;;;;;17.00;8.87;;;;;;;;;;4776987;29;20224;-88
2024/02/02 05:31:51;;;;;;;16.53;8.80;;;;;;;;;;4789085;29;20193;-89
2024/02/02 05:35:02;;;;;;;16.77;9.37;;;;;;;;;;4790210;29;20201;-88
2024/02/02 05:39:01;;;;;;;15.07;8.67;;;;;;;;;;4800610;29;20228;-89
2024/02/02 05:42:51;;;;;;;20.83;9.07;;;;;;;;;;4811453;29;20178;-87
2024/02/02 05:46:35;;;;;;;18.70;8.47;;;;;;;;;;4802392;29;20544;-88
2024/02/02 05:53:46;;;;;;;12.97;8.30;;;;;;;;;;4812252;29;20185;-85
2024/02/02 05:56:50;;;;;;;14.73;8.07;;;;;;;;;;4794766;29;20651;-85
2024/02/02 05:59:54;;;;;;;20.57;8.30;;;;;;;;;;4790295;29;20659;-86
2024/02/02 06:02:59;;;;;;;12.73;8.50;;;;;;;;;;4812125;29;20197;-86
2024/02/02 06:06:03;;;;;;;19.27;9.27;;;;;;;;;;4800766;29;20197;-86
2024/02/02 06:09:09;;;;;;;24.20;8.70;;;;;;;;;;4790867;29;20228;-86
2024/02/02 06:12:14;;;;;;;13.77;9.03;;;;;;;;;;4811861;29;20536;-86
2024/02/02 06:15:18;;;;;;;18.83;9.50;;;;;;;;;;4801004;29;20188;-86
2024/02/02 06:18:22;;;;;;;14.43;8.43;;;;;;;;;;4800971;29;20228;-86
2024/02/02 06:21:26;;;;;;;23.10;10.13;;;;;;;;;;4780930;29;20189;-86
2024/02/02 06:24:30;;;;;;;15.40;9.70;;;;;;;;;;4801377;29;20188;-86
2024/02/02 06:27:35;;;;;;;19.33;9.70;;;;;;;;;;4790883;29;20233;-86
2024/02/02 06:30:39;;;;;;;20.73;10.90;;;;;;;;;;4812037;29;20216;-86
2024/02/02 06:33:43;;;;;;;16.50;10.07;;;;;;;;;;4810708;29;20200;-86
2024/02/02 06:36:47;;;;;;;20.50;10.87;;;;;;;;;;4800274;29;20200;-85
2024/02/02 06:39:52;;;;;;;20.57;10.63;;;;;;;;;;4811877;29;20224;-84
2024/02/02 06:42:56;;;;;;;22.23;12.43;;;;;;;;;;4811078;29;20196;-84
2024/02/02 06:46:00;;;;;;;20.07;11.47;;;;;;;;;;4800201;29;20551;-84
2024/02/02 06:49:04;;;;;;;19.77;11.97;;;;;;;;;;4799926;29;20721;-84
2024/02/02 06:52:09;;;;;;;21.93;11.70;;;;;;;;;;4810478;29;20221;-84
2024/02/02 06:55:15;;;;;;;23.93;12.73;;;;;;;;;;4799992;29;20200;-84
2024/02/02 06:58:41;;;;;;;27.33;13.50;;;;;;;;;;4799405;29;20237;-84
2024/02/02 07:01:45;;;;;;;42.07;24.13;;;;;;;;;;4799555;29;20193;-84
2024/02/02 07:04:50;;;;;;;40.47;24.50;;;;;;;;;;4800347;29;20201;-84
2024/02/02 07:07:54;;;;;;;25.60;16.27;;;;;;;;;;4811050;29;20599;-84
2024/02/02 07:11:10;;;;;;;26.10;15.53;;;;;;;;;;4810581;29;20220;-84
2024/02/02 07:14:42;;;;;;;25.13;15.70;;;;;;;;;;4811550;29;20197;-84
2024/02/02 07:17:48;;;;;;;29.03;15.83;;;;;;;;;;4800255;29;20241;-84
2024/02/02 07:21:01;;;;;;;24.67;16.13;;;;;;;;;;4799814;29;20564;-84
2024/02/02 07:24:06;;;;;;;30.43;20.47;;;;;;;;;;4809218;29;20206;-84
2024/02/02 07:27:57;;;;;;;25.27;16.13;;;;;;;;;;4809309;29;20245;-84
2024/02/02 07:31:02;;;;;;;26.00;15.40;;;;;;;;;;4810200;29;20228;-84
2024/02/02 07:34:41;;;;;;;23.47;15.03;;;;;;;;;;4799344;29;20658;-84
2024/02/02 07:37:46;;;;;;;25.97;15.73;;;;;;;;;;4810288;29;20603;-84
2024/02/02 07:40:56;;;;;;;24.50;15.93;;;;;;;;;;4799650;29;20707;-84
2024/02/02 07:44:01;;;;;;;27.17;17.27;;;;;;;;;;4809255;29;20185;-84
2024/02/02 07:47:05;;;;;;;25.47;15.60;;;;;;;;;;4809106;29;20200;-84
2024/02/02 07:50:11;;;;;;;22.53;15.20;;;;;;;;;;4797895;29;20198;-84
2024/02/02 07:53:15;;;;;;;23.20;15.77;;;;;;;;;;4787895;29;20553;-85
2024/02/02 07:56:21;;;;;;;22.37;14.57;;;;;;;;;;4809458;29;20678;-84
2024/02/02 07:59:25;;;;;;;26.93;14.37;;;;;;;;;;4810747;29;20193;-84
2024/02/02 08:02:29;;;;;;;21.23;13.53;;;;;;;;;;4787974;29;20185;-84
2024/02/02 08:05:38;;;;;;;24.70;13.83;;;;;;;;;;4798608;29;20205;-84
2024/02/02 08:08:42;;;;;;;35.60;23.33;;;;;;;;;;4798913;29;20239;-84
2024/02/02 08:11:46;;;;;;;74.80;45.37;;;;;;;;;;4788216;29;20232;-84
2024/02/02 08:14:50;;;;;;;26.00;19.13;;;;;;;;;;4798559;29;20197;-84
2024/02/02 08:17:54;;;;;;;18.57;13.47;;;;;;;;;;4809671;29;20232;-84
2024/02/02 08:20:58;;;;;;;19.17;12.30;;;;;;;;;;4809206;29;20193;-84
2024/02/02 08:24:04;;;;;;;15.47;11.43;;;;;;;;;;4798539;29;20205;-84
2024/02/02 08:27:08;;;;;;;21.47;12.60;;;;;;;;;;4809582;29;20259;-84
2024/02/02 08:30:14;;;;;;;19.07;13.17;;;;;;;;;;4788107;29;20201;-84
2024/02/02 08:33:18;;;;;;;15.17;10.97;;;;;;;;;;4809801;29;20676;-84
2024/02/02 08:36:22;;;;;;;16.73;10.60;;;;;;;;;;4798864;29;20189;-84
2024/02/02 08:39:31;;;;;;;14.27;10.50;;;;;;;;;;4810191;29;20200;-84
2024/02/02 08:42:35;;;;;;;15.17;10.60;;;;;;;;;;4800148;29;20663;-84
2024/02/02 08:45:42;;;;;;;21.77;16.13;;;;;;;;;;4788749;29;20204;-84
2024/02/02 08:48:48;;;;;;;15.80;12.23;;;;;;;;;;4798992;29;20572;-84
2024/02/02 08:51:52;;;;;;;15.00;10.90;;;;;;;;;;4799004;29;20232;-85
2024/02/02 08:54:56;;;;;;;16.07;11.83;;;;;;;;;;4798486;29;20205;-84
2024/02/02 08:58:08;;;;;;;16.47;11.73;;;;;;;;;;4798902;29;20730;-84
2024/02/02 09:01:39;;;;;;;18.13;10.63;;;;;;;;;;4798714;29;20543;-84
2024/02/02 09:04:58;;;;;;;13.67;10.77;;;;;;;;;;4798986;29;20199;-84
2024/02/02 09:08:10;;;;;;;18.33;12.77;;;;;;;;;;4802008;29;20244;-84
2024/02/02 09:11:20;;;;;;;15.23;10.57;;;;;;;;;;4781772;29;20213;-84
2024/02/02 09:14:24;;;;;;;12.77;9.63;;;;;;;;;;4813220;29;20193;-84
2024/02/02 09:17:30;;;;;;;11.07;8.17;;;;;;;;;;4813984;29;20715;-85
2024/02/02 09:20:50;;;;;;;13.07;8.37;;;;;;;;;;4812839;29;20193;-84
2024/02/02 09:23:54;;;;;;;11.50;8.50;;;;;;;;;;4802236;29;20189;-85
2024/02/02 09:26:59;;;;;;;11.50;8.73;;;;;;;;;;4813538;29;20193;-84
2024/02/02 09:30:10;;;;;;;10.57;7.67;;;;;;;;;;4813232;29;20639;-84
2024/02/02 09:33:43;;;;;;;10.00;7.43;;;;;;;;;;4801416;29;20190;-84
2024/02/02 09:36:47;;;;;;;11.03;7.53;;;;;;;;;;4791457;29;20615;-84
2024/02/02 09:39:53;;;;;;;10.00;7.30;;;;;;;;;;4812935;29;20212;-84
2024/02/02 09:43:11;;;;;;;10.10;7.20;;;;;;;;;;4812924;29;20185;-85
2024/02/02 09:46:24;;;;;;;14.37;10.70;;;;;;;;;;4801653;29;20189;-85
2024/02/02 09:49:46;;;;;;;12.27;7.40;;;;;;;;;;4802336;29;20224;-84
2024/02/02 09:53:08;;;;;;;13.00;7.57;;;;;;;;;;4800190;29;20217;-84
2024/02/02 09:56:37;;;;;;;8.43;6.73;;;;;;;;;;4790121;29;20648;-84
2024/02/02 10:00:16;;;;;;;9.40;6.80;;;;;;;;;;4800519;29;20180;-84
2024/02/02 10:03:39;;;;;;;8.67;6.73;;;;;;;;;;4790514;29;20189;-84
2024/02/02 10:07:06;;;;;;;11.00;7.20;;;;;;;;;;4780656;29;20189;-85
2024/02/02 10:10:19;;;;;;;10.80;6.67;;;;;;;;;;4813023;29;20193;-84
2024/02/02 10:13:54;;;;;;;10.90;7.33;;;;;;;;;;4780526;29;20667;-85
2024/02/02 10:17:11;;;;;;;9.83;8.07;;;;;;;;;;4811045;29;20643;-84
2024/02/02 10:20:33;;;;;;;11.90;7.90;;;;;;;;;;4811089;29;20185;-84
2024/02/02 10:24:02;;;;;;;8.03;6.43;;;;;;;;;;4811814;29;20189;-84
2024/02/02 10:27:26;;;;;;;9.60;7.10;;;;;;;;;;4789875;29;20193;-84
2024/02/02 10:31:00;;;;;;;9.97;6.27;;;;;;;;;;4811210;29;20189;-85
2024/02/02 10:34:21;;;;;;;11.50;7.13;;;;;;;;;;4799924;29;20189;-84
2024/02/02 10:37:37;;;;;;;8.37;6.80;;;;;;;;;;4779161;29;20224;-84
2024/02/02 10:40:51;;;;;;;12.27;7.93;;;;;;;;;;4811619;29;20216;-84
2024/02/02 10:44:39;;;;;;;8.47;6.00;;;;;;;;;;4811292;29;20546;-84
2024/02/02 10:48:25;;;;;;;12.67;8.33;;;;;;;;;;4799781;29;20225;-84
2024/02/02 10:51:53;;;;;;;14.30;8.73;;;;;;;;;;4800317;29;20229;-84
2024/02/02 10:55:06;;;;;;;9.77;6.93;;;;;;;;;;4789417;29;20197;-84
2024/02/02 10:58:26;;;;;;;9.57;7.20;;;;;;;;;;4810719;29;20221;-85
2024/02/02 11:02:17;;;;;;;10.77;7.23;;;;;;;;;;4810811;29;20189;-84
2024/02/02 11:05:44;;;;;;;7.43;5.93;;;;;;;;;;4799799;29;20198;-84
2024/02/02 11:08:54;;;;;;;7.47;5.07;;;;;;;;;;4810680;29;20221;-84
2024/02/02 11:12:10;;;;;;;9.77;6.00;;;;;;;;;;4810134;29;20217;-84
2024/02/02 11:15:35;;;;;;;8.13;5.60;;;;;;;;;;4810139;29;20528;-84
2024/02/02 11:19:06;;;;;;;8.40;5.40;;;;;;;;;;4798792;29;20225;-84
2024/02/02 11:22:54;;;;;;;6.80;4.93;;;;;;;;;;4811445;29;20185;-85
2024/02/02 11:26:11;;;;;;;8.57;5.13;;;;;;;;;;4810129;29;20201;-84
2024/02/02 11:29:23;;;;;;;6.80;5.17;;;;;;;;;;4798078;29;20190;-85
2024/02/02 11:33:03;;;;;;;6.70;4.97;;;;;;;;;;4798758;29;20225;-84
2024/02/02 11:36:22;;;;;;;6.20;4.60;;;;;;;;;;4798911;29;20205;-85
2024/02/02 11:39:53;;;;;;;7.70;4.80;;;;;;;;;;4799223;29;20564;-84
2024/02/02 11:42:58;;;;;;;6.77;4.43;;;;;;;;;;4788451;29;20185;-84
2024/02/02 11:46:03;;;;;;;6.80;4.00;;;;;;;;;;4798759;29;20197;-84
2024/02/02 11:49:09;;;;;;;6.47;4.00;;;;;;;;;;4798636;29;20596;-84
2024/02/02 11:52:22;;;;;;;6.90;4.23;;;;;;;;;;4809867;29;20680;-84
2024/02/02 11:55:32;;;;;;;5.43;4.13;;;;;;;;;;4799012;29;20193;-84
2024/02/02 11:58:43;;;;;;;5.50;4.43;;;;;;;;;;4787896;29;20228;-84
2024/02/02 12:02:15;;;;;;;5.27;3.80;;;;;;;;;;4797853;29;20189;-84
2024/02/02 12:05:24;;;;;;;7.00;4.20;;;;;;;;;;4808892;29;20185;-84
2024/02/02 12:08:36;;;;;;;4.60;3.73;;;;;;;;;;4798052;29;20229;-85
2024/02/02 12:11:46;;;;;;;4.43;3.63;;;;;;;;;;4809089;29;20192;-85
2024/02/02 12:14:53;;;;;;;5.43;4.10;;;;;;;;;;4809332;29;20643;-84
2024/02/02 12:17:57;;;;;;;7.87;4.10;;;;;;;;;;4809162;29;20236;-84
2024/02/02 12:21:02;;;;;;;4.97;3.67;;;;;;;;;;4809234;29;20525;-85
2024/02/02 12:24:06;;;;;;;4.57;3.50;;;;;;;;;;4808488;29;20528;-84
2024/02/02 12:27:11;;;;;;;4.07;3.00;;;;;;;;;;4777303;29;20232;-84
2024/02/02 12:30:16;;;;;;;5.27;3.57;;;;;;;;;;4797815;29;20635;-84
2024/02/02 12:33:23;;;;;;;6.53;3.47;;;;;;;;;;4797896;29;20682;-84
2024/02/02 12:36:27;;;;;;;4.00;2.93;;;;;;;;;;4809350;29;20655;-83
2024/02/02 12:39:31;;;;;;;3.23;2.67;;;;;;;;;;4809133;29;20216;-87
2024/02/02 12:42:36;;;;;;;3.47;2.90;;;;;;;;;;4797664;29;20189;-86
2024/02/02 12:45:42;;;;;;;4.27;3.47;;;;;;;;;;4797775;29;20197;-87
2024/02/02 12:48:47;;;;;;;3.57;2.90;;;;;;;;;;4808491;29;20237;-87
2024/02/02 12:51:56;;;;;;;3.30;2.83;;;;;;;;;;4797425;29;20644;-85
2024/02/02 12:55:00;;;;;;;3.40;2.77;;;;;;;;;;4808127;29;20189;-87
2024/02/02 12:58:05;;;;;;;3.30;2.57;;;;;;;;;;4786850;29;20228;-87
2024/02/02 13:01:10;;;;;;;2.73;2.30;;;;;;;;;;4797678;29;20197;-86
2024/02/02 13:04:16;;;;;;;13.17;9.73;;;;;;;;;;4798344;29;20193;-87
2024/02/02 13:07:21;;;;;;;3.73;3.20;;;;;;;;;;4808434;29;20232;-87
2024/02/02 13:10:35;;;;;;;3.27;2.80;;;;;;;;;;4797943;29;20193;-85
2024/02/02 13:13:42;;;;;;;4.07;2.80;;;;;;;;;;4796855;29;20217;-87
2024/02/02 13:16:47;;;;;;;4.13;3.07;;;;;;;;;;4807720;29;20568;-87
2024/02/02 13:19:57;;;;;;;4.37;3.87;;;;;;;;;;4797020;29;20189;-87
2024/02/02 13:23:13;;;;;;;3.53;2.73;;;;;;;;;;4797196;29;20189;-87
2024/02/02 13:26:21;;;;;;;4.17;3.23;;;;;;;;;;4787779;29;20189;-88
2024/02/02 13:29:26;;;;;;;5.50;3.60;;;;;;;;;;4789097;29;20652;-87
2024/02/02 13:32:33;;;;;;;5.13;3.33;;;;;;;;;;4808729;29;20221;-87
2024/02/02 13:35:39;;;;;;;4.73;4.20;;;;;;;;;;4798123;29;20205;-86
2024/02/02 13:38:47;;;;;;;4.43;3.57;;;;;;;;;;4797838;29;20228;-87
2024/02/02 13:41:52;;;;;;;7.20;5.70;;;;;;;;;;4796623;29;20216;-87
2024/02/02 13:45:17;;;;;;;3.63;3.23;;;;;;;;;;4776290;29;20197;-86
2024/02/02 13:48:25;;;;;;;4.67;2.63;;;;;;;;;;4808665;29;20225;-86
2024/02/02 13:51:32;;;;;;;3.30;2.80;;;;;;;;;;4796815;29;20202;-86
2024/02/02 13:54:37;;;;;;;3.70;2.67;;;;;;;;;;4801058;29;20189;-86
2024/02/02 13:57:42;;;;;;;4.03;3.20;;;;;;;;;;4800525;29;20571;-86
2024/02/02 14:00:46;;;;;;;5.10;3.40;;;;;;;;;;4790312;29;20193;-86
2024/02/02 14:03:54;;;;;;;4.83;3.23;;;;;;;;;;4789978;29;20667;-86
2024/02/02 14:06:59;;;;;;;4.87;3.10;;;;;;;;;;4800830;29;20196;-86
2024/02/02 14:10:04;;;;;;;6.10;3.40;;;;;;;;;;4789593;29;20197;-86
2024/02/02 14:13:21;;;;;;;6.60;3.43;;;;;;;;;;4799682;29;20225;-86
2024/02/02 14:16:31;;;;;;;5.33;3.27;;;;;;;;;;4789994;29;20189;-88
2024/02/02 14:19:37;;;;;;;4.23;3.20;;;;;;;;;;4792049;29;20189;-85
2024/02/02 14:22:44;;;;;;;4.63;3.23;;;;;;;;;;4799678;29;20197;-86
2024/02/02 14:25:49;;;;;;;3.50;2.67;;;;;;;;;;4799589;29;20196;-85
2024/02/02 14:29:00;;;;;;;4.57;3.13;;;;;;;;;;4810880;29;20224;-84
2024/02/02 14:32:05;;;;;;;3.80;3.10;;;;;;;;;;4789868;29;20648;-84
2024/02/02 14:35:10;;;;;;;3.53;3.03;;;;;;;;;;4812260;29;20193;-85
2024/02/02 14:38:14;;;;;;;4.57;3.27;;;;;;;;;;4800336;29;20232;-85
2024/02/02 14:41:19;;;;;;;3.60;3.17;;;;;;;;;;4799136;29;20220;-86
2024/02/02 14:44:26;;;;;;;3.40;2.87;;;;;;;;;;4799319;29;20216;-86
2024/02/02 14:47:31;;;;;;;4.10;3.07;;;;;;;;;;4800284;29;20568;-84
2024/02/02 14:50:35;;;;;;;6.27;3.73;;;;;;;;;;4811560;29;20193;-86
2024/02/02 14:53:40;;;;;;;4.17;2.93;;;;;;;;;;4799444;29;20221;-85
2024/02/02 14:56:44;;;;;;;5.40;3.03;;;;;;;;;;4799861;29;20196;-85
2024/02/02 14:59:51;;;;;;;4.90;3.10;;;;;;;;;;4810332;29;20193;-85
2024/02/02 15:02:57;;;;;;;4.33;3.40;;;;;;;;;;4789418;29;20643;-86
2024/02/02 15:06:00;;;;;;;4.23;3.07;;;;;;;;;;4789038;29;20201;-86
2024/02/02 15:09:12;;;;;;;4.33;2.90;;;;;;;;;;4788897;29;20572;-86
2024/02/02 15:12:17;;;;;;;6.30;3.10;;;;;;;;;;4788747;29;20189;-86
2024/02/02 15:15:21;;;;;;;3.67;2.53;;;;;;;;;;4788725;29;20201;-86
2024/02/02 15:18:27;;;;;;;3.83;3.00;;;;;;;;;;4798613;29;20718;-86
2024/02/02 15:21:32;;;;;;;4.07;3.40;;;;;;;;;;4809163;29;20635;-86
2024/02/02 15:24:36;;;;;;;3.77;2.90;;;;;;;;;;4809767;29;20185;-86
2024/02/02 15:27:40;;;;;;;3.90;3.00;;;;;;;;;;4809128;29;20228;-86
2024/02/02 15:30:45;;;;;;;3.50;2.67;;;;;;;;;;4788544;29;20197;-86
2024/02/02 15:33:49;;;;;;;4.80;3.10;;;;;;;;;;4798763;29;20217;-86
2024/02/02 15:36:54;;;;;;;4.23;2.97;;;;;;;;;;4787844;29;20197;-87
2024/02/02 15:40:00;;;;;;;3.80;3.03;;;;;;;;;;4797835;29;20217;-88
2024/02/02 15:43:12;;;;;;;4.47;2.93;;;;;;;;;;4788152;29;20189;-89
2024/02/02 15:46:19;;;;;;;6.30;3.27;;;;;;;;;;4798039;29;20189;-86
2024/02/02 15:49:24;;;;;;;6.40;5.00;;;;;;;;;;4797845;29;20197;-88
2024/02/02 15:52:28;;;;;;;7.23;3.97;;;;;;;;;;4787219;29;20196;-88
2024/02/02 15:55:32;;;;;;;6.83;4.47;;;;;;;;;;4776590;29;20189;-88
2024/02/02 15:58:36;;;;;;;4.30;3.90;;;;;;;;;;4807869;29;20703;-88
2024/02/02 16:01:47;;;;;;;3.87;2.93;;;;;;;;;;4797595;29;20192;-88
2024/02/02 16:04:57;;;;;;;5.23;3.20;;;;;;;;;;4787395;29;20185;-87
2024/02/02 16:08:01;;;;;;;7.50;6.17;;;;;;;;;;4796906;29;20225;-86
2024/02/02 16:11:05;;;;;;;6.10;4.93;;;;;;;;;;4787025;29;20189;-88
2024/02/02 16:14:09;;;;;;;7.10;6.27;;;;;;;;;;4796979;29;20221;-88
2024/02/02 16:17:14;;;;;;;6.37;4.83;;;;;;;;;;4786419;29;20237;-88
2024/02/02 16:20:19;;;;;;;4.43;3.37;;;;;;;;;;4786727;29;20303;-88
2024/02/02 16:23:24;;;;;;;4.20;3.50;;;;;;;;;;4797397;29;20193;-88
2024/02/02 16:26:27;;;;;;;4.33;3.27;;;;;;;;;;4808677;29;20205;-88
2024/02/02 16:29:34;;;;;;;4.63;3.20;;;;;;;;;;4808146;29;20189;-88
2024/02/02 16:32:39;;;;;;;4.70;3.47;;;;;;;;;;4808127;29;20533;-88
2024/02/02 16:35:43;;;;;;;4.40;3.60;;;;;;;;;;4796649;29;20190;-88
2024/02/02 16:38:47;;;;;;;4.57;3.77;;;;;;;;;;4786120;29;20604;-88
2024/02/02 16:41:57;;;;;;;5.23;3.63;;;;;;;;;;4785952;29;20220;-88
2024/02/02 16:45:02;;;;;;;3.43;2.83;;;;;;;;;;4806883;29;20189;-89
2024/02/02 16:48:10;;;;;;;4.73;2.77;;;;;;;;;;4775890;29;20699;-89
2024/02/02 16:51:16;;;;;;;3.03;2.30;;;;;;;;;;4796270;29;20651;-89
2024/02/02 16:54:22;;;;;;;5.30;2.60;;;;;;;;;;4786902;29;20228;-88
2024/02/02 16:57:38;;;;;;;5.83;4.57;;;;;;;;;;4799698;29;20228;-89
2024/02/02 17:00:42;;;;;;;10.40;6.17;;;;;;;;;;4787410;29;20628;-89
2024/02/02 17:03:46;;;;;;;13.43;7.73;;;;;;;;;;4786270;29;20189;-88
2024/02/02 17:06:50;;;;;;;11.50;6.60;;;;;;;;;;4795896;29;20185;-88
2024/02/02 17:09:54;;;;;;;5.70;4.07;;;;;;;;;;4786132;29;20636;-87
2024/02/02 17:12:59;;;;;;;20.37;12.07;;;;;;;;;;4807723;29;20200;-86
2024/02/02 17:16:04;;;;;;;43.90;25.10;;;;;;;;;;4796127;29;20204;-86
2024/02/02 17:19:09;;;;;;;21.30;12.07;;;;;;;;;;4786056;29;20239;-87
2024/02/02 17:22:12;;;;;;;33.87;20.17;;;;;;;;;;4807678;29;20198;-86
2024/02/02 17:25:16;;;;;;;30.17;19.17;;;;;;;;;;4807556;29;20189;-86
2024/02/02 17:28:20;;;;;;;20.90;13.30;;;;;;;;;;4800419;29;20232;-86
2024/02/02 17:31:25;;;;;;;33.10;21.03;;;;;;;;;;4790646;29;20197;-86
2024/02/02 17:34:29;;;;;;;22.80;14.57;;;;;;;;;;4800630;29;20243;-87
2024/02/02 17:37:33;;;;;;;6.37;4.73;;;;;;;;;;4800848;29;20233;-87
2024/02/02 17:40:37;;;;;;;6.37;5.10;;;;;;;;;;4800954;29;20213;-87
2024/02/02 17:43:44;;;;;;;4.23;3.60;;;;;;;;;;4800648;29;20193;-86
2024/02/02 17:46:50;;;;;;;5.00;4.10;;;;;;;;;;4799803;29;20201;-87
2024/02/02 17:49:54;;;;;;;3.57;2.93;;;;;;;;;;4810945;29;20197;-87
2024/02/02 17:52:58;;;;;;;4.80;3.57;;;;;;;;;;4799603;29;20201;-86
2024/02/02 17:56:04;;;;;;;3.60;2.77;;;;;;;;;;4810499;29;20570;-87
2024/02/02 17:59:09;;;;;;;2.97;2.30;;;;;;;;;;4798795;29;20236;-88
2024/02/02 18:02:14;;;;;;;2.80;2.27;;;;;;;;;;4778950;29;20197;-88
2024/02/02 18:05:19;;;;;;;7.10;2.63;;;;;;;;;;4799163;29;20197;-87
2024/02/02 18:08:25;;;;;;;4.50;3.43;;;;;;;;;;4798628;29;20224;-88
2024/02/02 18:11:29;;;;;;;9.70;6.27;;;;;;;;;;4793534;29;20716;-87
2024/02/02 18:14:33;;;;;;;16.80;9.17;;;;;;;;;;4779172;30;20684;-88
2024/02/02 18:17:37;;;;;;;12.57;8.10;;;;;;;;;;4762112;30;20229;-88
2024/02/02 18:20:41;;;;;;;4.07;2.97;;;;;;;;;;4770694;30;20193;-88
2024/02/02 18:23:46;;;;;;;4.37;2.70;;;;;;;;;;4792316;30;20533;-88
2024/02/02 18:26:51;;;;;;;3.93;2.67;;;;;;;;;;4770957;30;20193;-86
2024/02/02 18:29:55;;;;;;;2.93;2.40;;;;;;;;;;4770969;30;20198;-88
2024/02/02 18:32:59;;;;;;;3.90;2.70;;;;;;;;;;4770760;30;20544;-88
2024/02/02 18:36:04;;;;;;;3.80;2.10;;;;;;;;;;4770668;30;20186;-88